createdAt,value
2022-08-17T00:00:49.655Z,18.50
2022-08-17T00:03:25.890Z,20.20
2022-08-17T00:06:00.792Z,19.20
2022-08-17T00:08:33.933Z,20.50
2022-08-17T00:11:09.543Z,17.70
2022-08-17T00:13:45.603Z,21.90
2022-08-17T00:16:50.993Z,18.60
2022-08-17T00:19:22.061Z,18.70
2022-08-17T00:22:31.047Z,19.30
2022-08-17T00:24:49.081Z,19.70
2022-08-17T00:27:20.719Z,20.80
2022-08-17T00:29:52.289Z,17.70
2022-08-17T00:33:13.673Z,19.20
2022-08-17T00:35:17.806Z,19.20
2022-08-17T00:37:49.256Z,18.90
2022-08-17T00:40:21.951Z,19.10
2022-08-17T00:42:56.813Z,18.40
2022-08-17T00:45:28.482Z,18.50
2022-08-17T00:47:59.738Z,16.00
2022-08-17T00:50:31.007Z,17.00
2022-08-17T00:53:05.489Z,17.90
2022-08-17T00:55:37.014Z,14.50
2022-08-17T00:58:09.248Z,16.90
2022-08-17T01:00:44.303Z,16.40
2022-08-17T01:03:20.383Z,17.80
2022-08-17T01:05:55.138Z,18.60
2022-08-17T01:08:29.746Z,18.40
2022-08-17T01:13:40.755Z,20.50
2022-08-17T01:16:18.508Z,20.50
2022-08-17T01:18:53.871Z,17.40
2022-08-17T01:21:32.957Z,20.10
2022-08-17T01:24:04.978Z,19.20
2022-08-17T01:26:37.260Z,18.40
2022-08-17T01:29:09.530Z,20.20
2022-08-17T01:31:45.392Z,15.60
2022-08-17T01:34:18.756Z,16.20
2022-08-17T01:36:51.668Z,20.50
2022-08-17T01:39:27.905Z,19.80
2022-08-17T01:42:07.043Z,16.60
2022-08-17T01:44:38.552Z,18.30
2022-08-17T01:47:09.799Z,16.00
2022-08-17T01:49:41.301Z,18.30
2022-08-17T01:52:14.293Z,20.00
2022-08-17T01:54:48.597Z,17.80
2022-08-17T01:59:49.429Z,16.80
2022-08-17T02:02:30.839Z,20.80
2022-08-17T02:05:02.885Z,16.30
2022-08-17T02:07:59.688Z,17.50
2022-08-17T02:10:34.109Z,17.40
2022-08-17T02:13:07.649Z,19.00
2022-08-17T02:15:39.125Z,17.40
2022-08-17T02:18:11.871Z,17.90
2022-08-17T02:20:44.210Z,15.80
2022-08-17T02:23:16.606Z,17.50
2022-08-17T02:25:49.997Z,17.80
2022-08-17T02:28:21.699Z,16.90
2022-08-17T02:31:01.615Z,18.00
2022-08-17T02:33:43.053Z,18.40
2022-08-17T02:36:16.180Z,19.00
2022-08-17T02:38:48.008Z,18.40
2022-08-17T02:41:19.536Z,18.60
2022-08-17T02:43:51.374Z,17.10
2022-08-17T02:46:22.865Z,18.90
2022-08-17T02:48:54.389Z,18.90
2022-08-17T02:51:26.023Z,18.00
2022-08-17T02:54:35.787Z,18.40
2022-08-17T02:56:48.709Z,20.80
2022-08-17T02:59:20.086Z,14.30
2022-08-17T03:01:51.511Z,15.90
2022-08-17T03:04:22.886Z,17.20
2022-08-17T03:06:54.157Z,18.80
2022-08-17T03:09:25.487Z,17.70
2022-08-17T03:11:57.461Z,17.50
2022-08-17T03:14:28.831Z,17.30
2022-08-17T03:17:00.305Z,18.30
2022-08-17T03:19:31.547Z,19.50
2022-08-17T03:22:35.930Z,16.10
2022-08-17T03:24:58.771Z,18.20
2022-08-17T03:27:35.233Z,18.10
2022-08-17T03:30:12.655Z,19.10
2022-08-17T03:32:51.566Z,17.60
2022-08-17T03:35:25.910Z,19.00
2022-08-17T03:38:00.029Z,19.40
2022-08-17T03:40:36.957Z,19.10
2022-08-17T03:43:25.356Z,20.90
2022-08-17T03:46:33.960Z,19.30
2022-08-17T03:49:23.501Z,18.30
2022-08-17T03:52:12.430Z,19.40
2022-08-17T03:55:01.827Z,19.60
2022-08-17T03:57:34.494Z,20.50
2022-08-17T04:00:06.718Z,20.00
2022-08-17T04:02:38.334Z,18.30
2022-08-17T04:05:11.076Z,20.00
2022-08-17T04:07:42.936Z,21.50
2022-08-17T04:10:14.376Z,20.70
2022-08-17T04:12:51.145Z,22.50
2022-08-17T04:15:22.959Z,18.20
2022-08-17T04:17:54.858Z,20.60
2022-08-17T04:20:27.802Z,22.60
2022-08-17T04:23:05.678Z,21.50
2022-08-17T04:25:39.315Z,19.10
2022-08-17T04:28:15.789Z,20.90
2022-08-17T04:30:49.043Z,18.70
2022-08-17T04:33:24.285Z,19.20
2022-08-17T04:35:59.521Z,23.40
2022-08-17T04:38:32.441Z,21.00
2022-08-17T04:41:21.667Z,16.40
2022-08-17T04:43:56.341Z,14.60
2022-08-17T04:46:30.068Z,16.40
2022-08-17T04:49:02.642Z,22.70
2022-08-17T04:51:36.094Z,19.00
2022-08-17T04:54:09.306Z,23.50
2022-08-17T04:56:41.599Z,18.20
2022-08-17T04:59:15.647Z,17.40
2022-08-17T05:04:34.089Z,16.90
2022-08-17T05:07:07.022Z,21.90
2022-08-17T05:09:38.339Z,17.90
2022-08-17T05:12:10.354Z,19.80
2022-08-17T05:14:43.184Z,21.60
2022-08-17T05:17:14.585Z,19.60
2022-08-17T05:19:51.783Z,18.50
2022-08-17T05:22:23.413Z,19.90
2022-08-17T05:24:56.713Z,20.40
2022-08-17T05:27:30.833Z,17.50
2022-08-17T05:30:07.974Z,20.70
2022-08-17T05:32:40.438Z,20.20
2022-08-17T05:35:12.376Z,18.30
2022-08-17T05:37:43.579Z,19.80
2022-08-17T05:40:15.982Z,21.00
2022-08-17T05:42:47.335Z,23.70
2022-08-17T05:45:46.042Z,24.00
2022-08-17T05:48:13.242Z,21.80
2022-08-17T05:50:51.642Z,23.00
2022-08-17T05:53:32.616Z,20.30
2022-08-17T05:56:29.611Z,19.70
2022-08-17T05:59:09.493Z,21.00
2022-08-17T06:01:50.087Z,21.30
2022-08-17T06:04:31.742Z,18.70
2022-08-17T06:07:13.634Z,19.70
2022-08-17T06:09:53.776Z,21.10
2022-08-17T06:12:41.483Z,17.00
2022-08-17T06:15:25.275Z,19.20
2022-08-17T06:18:00.656Z,20.60
2022-08-17T06:20:37.188Z,19.70
2022-08-17T06:23:14.595Z,25.90
2022-08-17T06:25:51.149Z,19.40
2022-08-17T06:28:29.873Z,18.70
2022-08-17T06:31:07.779Z,19.80
2022-08-17T06:33:41.869Z,22.00
2022-08-17T06:36:28.968Z,25.00
2022-08-17T06:39:11.718Z,18.80
2022-08-17T06:41:52.501Z,18.80
2022-08-17T06:44:43.525Z,20.60
2022-08-17T06:47:28.093Z,19.90
2022-08-17T06:50:12.025Z,18.50
2022-08-17T06:52:52.073Z,18.70
2022-08-17T06:55:27.867Z,18.90
2022-08-17T06:58:15.802Z,19.90
2022-08-17T07:00:54.229Z,18.90
2022-08-17T07:03:38.226Z,17.10
2022-08-17T07:06:16.572Z,19.80
2022-08-17T07:08:55.492Z,21.60
2022-08-17T07:11:33.208Z,17.30
2022-08-17T07:14:20.546Z,18.80
2022-08-17T07:16:55.147Z,15.10
2022-08-17T07:19:32.654Z,16.70
2022-08-17T07:22:15.011Z,17.00
2022-08-17T07:24:51.867Z,15.50
2022-08-17T07:27:27.517Z,17.40
2022-08-17T07:30:08.027Z,17.30
2022-08-17T07:32:45.666Z,15.50
2022-08-17T07:35:22.493Z,16.40
2022-08-17T07:38:25.416Z,14.40
2022-08-17T07:41:06.512Z,16.20
2022-08-17T07:43:46.516Z,15.10
2022-08-17T07:46:38.172Z,16.10
2022-08-17T07:49:39.485Z,15.00
2022-08-17T07:52:50.770Z,12.50
2022-08-17T07:55:30.978Z,13.30
2022-08-17T07:58:03.854Z,15.50
2022-08-17T08:00:37.469Z,18.10
2022-08-17T08:03:22.127Z,13.00
2022-08-17T08:06:02.477Z,14.60
2022-08-17T08:08:39.138Z,13.40
2022-08-17T08:11:16.963Z,12.60
2022-08-17T08:13:50.156Z,14.20
2022-08-17T08:16:30.796Z,15.00
2022-08-17T08:19:04.309Z,14.60
2022-08-17T08:21:42.061Z,12.50
2022-08-17T08:24:33.074Z,12.80
2022-08-17T08:27:16.275Z,13.20
2022-08-17T08:29:55.451Z,12.40
2022-08-17T08:32:43.258Z,12.70
2022-08-17T08:35:26.919Z,12.70
2022-08-17T08:38:09.027Z,13.20
2022-08-17T08:40:52.890Z,12.80
2022-08-17T08:43:33.149Z,13.70
2022-08-17T08:46:24.445Z,13.00
2022-08-17T08:49:12.645Z,13.00
2022-08-17T08:51:53.790Z,14.00
2022-08-17T08:54:40.166Z,17.20
2022-08-17T08:57:25.707Z,16.10
2022-08-17T09:00:15.093Z,20.90
2022-08-17T09:03:42.569Z,18.20
2022-08-17T09:06:39.194Z,18.50
2022-08-17T09:09:24.612Z,15.60
2022-08-17T09:12:04.239Z,13.50
2022-08-17T09:14:47.323Z,12.40
2022-08-17T09:17:22.817Z,12.80
2022-08-17T09:20:01.523Z,11.50
2022-08-17T09:22:37.795Z,13.00
2022-08-17T09:25:15.250Z,11.90
2022-08-17T09:27:56.937Z,11.60
2022-08-17T09:30:41.060Z,13.20
2022-08-17T09:33:15.623Z,13.70
2022-08-17T09:35:52.625Z,12.00
2022-08-17T09:38:32.717Z,14.60
2022-08-17T09:41:14.130Z,14.30
2022-08-17T09:43:52.229Z,10.30
2022-08-17T09:46:26.854Z,10.70
2022-08-17T09:49:04.681Z,11.70
2022-08-17T09:51:42.988Z,10.70
2022-08-17T09:54:38.655Z,13.90
2022-08-17T09:57:31.821Z,11.20
2022-08-17T10:00:24.104Z,12.30
2022-08-17T10:03:20.229Z,12.00
2022-08-17T10:05:59.804Z,11.40
2022-08-17T10:08:43.897Z,15.10
2022-08-17T10:11:48.396Z,10.80
2022-08-17T10:14:37.979Z,14.10
2022-08-17T10:17:23.038Z,11.00
2022-08-17T10:20:01.361Z,13.40
2022-08-17T10:23:00.062Z,11.50
2022-08-17T10:25:58.473Z,10.10
2022-08-17T10:28:40.483Z,12.80
2022-08-17T10:31:39.730Z,12.10
2022-08-17T10:34:41.587Z,10.80
2022-08-17T10:37:44.042Z,14.40
2022-08-17T10:40:32.792Z,12.30
2022-08-17T10:43:17.658Z,12.50
2022-08-17T10:46:30.198Z,11.50
2022-08-17T10:49:08.888Z,10.70
2022-08-17T10:51:42.286Z,12.90
2022-08-17T10:54:41.273Z,11.30
2022-08-17T10:57:39.429Z,11.10
2022-08-17T11:00:16.603Z,11.80
2022-08-17T11:02:53.517Z,10.20
2022-08-17T11:05:47.746Z,12.40
2022-08-17T11:08:50.742Z,12.80
2022-08-17T11:11:52.918Z,11.90
2022-08-17T11:14:50.802Z,15.00
2022-08-17T11:17:42.894Z,11.20
2022-08-17T11:20:58.758Z,12.80
2022-08-17T11:23:57.635Z,14.90
2022-08-17T11:26:32.354Z,12.80
2022-08-17T11:29:09.845Z,13.00
2022-08-17T11:31:43.942Z,12.10
2022-08-17T11:34:26.815Z,12.30
2022-08-17T11:37:17.097Z,10.10
2022-08-17T11:40:19.631Z,11.50
2022-08-17T11:43:08.220Z,11.30
2022-08-17T11:46:03.751Z,13.40
2022-08-17T11:49:00.472Z,10.40
2022-08-17T11:52:01.634Z,13.00
2022-08-17T11:54:51.182Z,13.10
2022-08-17T11:58:02.041Z,11.30
2022-08-17T12:00:58.122Z,13.40
2022-08-17T12:03:57.475Z,11.90
2022-08-17T12:06:42.854Z,12.50
2022-08-17T12:09:18.718Z,9.00
2022-08-17T12:12:12.117Z,9.40
2022-08-17T12:15:10.529Z,8.80
2022-08-17T12:17:43.974Z,10.20
2022-08-17T12:20:24.411Z,8.40
2022-08-17T12:23:05.821Z,11.40
2022-08-17T12:25:40.576Z,9.80
2022-08-17T12:28:26.545Z,10.00
2022-08-17T12:31:01.345Z,8.20
2022-08-17T12:33:33.351Z,12.40
2022-08-17T12:36:07.703Z,10.50
2022-08-17T12:38:40.280Z,13.00
2022-08-17T12:41:30.271Z,13.60
2022-08-17T12:44:05.513Z,9.40
2022-08-17T12:46:49.323Z,13.20
2022-08-17T12:49:29.309Z,13.30
2022-08-17T12:52:09.377Z,10.40
2022-08-17T12:54:56.714Z,10.80
2022-08-17T12:57:33.470Z,10.00
2022-08-17T13:00:11.803Z,10.80
2022-08-17T13:02:48.033Z,9.80
2022-08-17T13:05:25.706Z,10.80
2022-08-17T13:07:58.619Z,11.90
2022-08-17T13:10:34.024Z,11.40
2022-08-17T13:13:18.598Z,13.10
2022-08-17T13:15:58.222Z,9.20
2022-08-17T13:18:44.435Z,10.30
2022-08-17T13:21:28.979Z,8.90
2022-08-17T13:24:02.819Z,8.70
2022-08-17T13:26:38.037Z,11.30
2022-08-17T13:29:23.589Z,12.60
2022-08-17T13:32:04.811Z,11.20
2022-08-17T13:35:05.262Z,11.90
2022-08-17T13:37:35.434Z,8.60
2022-08-17T13:40:29.670Z,10.60
2022-08-17T13:43:03.594Z,12.80
2022-08-17T13:48:17.948Z,11.50
2022-08-17T13:51:04.364Z,11.00
2022-08-17T13:53:53.550Z,11.20
2022-08-17T13:56:54.895Z,9.80
2022-08-17T13:59:55.214Z,12.00
2022-08-17T14:02:28.675Z,10.20
2022-08-17T14:05:06.075Z,11.80
2022-08-17T14:07:40.471Z,10.70
2022-08-17T14:10:17.644Z,9.40
2022-08-17T14:12:51.238Z,11.20
2022-08-17T14:15:54.868Z,11.30
2022-08-17T14:18:41.978Z,12.00
2022-08-17T14:21:12.175Z,9.10
2022-08-17T14:23:54.445Z,9.80
2022-08-17T14:26:26.012Z,9.80
2022-08-17T14:28:58.044Z,10.10
2022-08-17T14:31:34.065Z,9.20
2022-08-17T14:34:10.866Z,12.20
2022-08-17T14:39:20.813Z,11.20
2022-08-17T14:41:53.483Z,9.20
2022-08-17T14:44:24.916Z,8.90
2022-08-17T14:46:57.783Z,13.30
2022-08-17T14:49:31.826Z,8.80
2022-08-17T14:52:04.268Z,8.80
2022-08-17T14:54:35.729Z,9.50
2022-08-17T14:57:15.585Z,12.70
2022-08-17T14:59:59.501Z,11.70
2022-08-17T15:02:31.338Z,11.20
2022-08-17T15:05:05.151Z,9.70
2022-08-17T15:07:36.616Z,11.70
2022-08-17T15:10:09.363Z,11.80
2022-08-17T15:12:41.573Z,11.00
2022-08-17T15:15:15.731Z,12.10
2022-08-17T15:17:47.398Z,9.00
2022-08-17T15:20:22.215Z,11.20
2022-08-17T15:22:55.891Z,12.90
2022-08-17T15:25:29.890Z,12.20
2022-08-17T15:28:01.950Z,8.90
2022-08-17T15:30:34.889Z,13.10
2022-08-17T15:33:08.201Z,13.10
2022-08-17T15:35:39.780Z,8.70
2022-08-17T15:38:12.487Z,9.30
2022-08-17T15:40:46.478Z,11.90
2022-08-17T15:45:52.538Z,9.40
2022-08-17T15:48:42.594Z,9.70
2022-08-17T15:51:16.807Z,9.10
2022-08-17T15:53:52.206Z,9.10
2022-08-17T15:56:24.037Z,8.60
2022-08-17T15:58:56.151Z,10.50
2022-08-17T16:02:15.377Z,14.10
2022-08-17T16:04:29.711Z,11.80
2022-08-17T16:07:03.150Z,9.70
2022-08-17T16:09:34.833Z,11.50
2022-08-17T16:12:14.745Z,11.20
2022-08-17T16:14:46.508Z,12.70
2022-08-17T16:17:39.027Z,11.00
2022-08-17T16:20:20.011Z,9.50
2022-08-17T16:22:54.173Z,12.40
2022-08-17T16:25:38.807Z,11.30
2022-08-17T16:28:35.804Z,11.20
2022-08-17T16:31:08.880Z,9.00
2022-08-17T16:33:41.417Z,12.20
2022-08-17T16:36:13.608Z,14.10
2022-08-17T16:38:44.880Z,10.90
2022-08-17T16:41:37.203Z,10.80
2022-08-17T16:44:10.799Z,12.20
2022-08-17T16:46:48.739Z,9.60
2022-08-17T16:49:36.119Z,14.30
2022-08-17T16:55:08.704Z,11.30
2022-08-17T16:57:47.193Z,12.60
2022-08-17T17:00:22.040Z,10.20
2022-08-17T17:02:54.941Z,12.20
2022-08-17T17:05:39.236Z,14.70
2022-08-17T17:10:48.152Z,12.60
2022-08-17T17:13:26.936Z,13.40
2022-08-17T17:16:19.397Z,14.30
2022-08-17T17:19:09.619Z,11.70
2022-08-17T17:21:46.711Z,12.60
2022-08-17T17:24:28.886Z,14.90
2022-08-17T17:27:17.994Z,13.60
2022-08-17T17:30:03.947Z,15.10
2022-08-17T17:32:40.808Z,19.70
2022-08-17T17:35:18.158Z,15.50
2022-08-17T17:37:51.749Z,14.40
2022-08-17T17:40:26.970Z,17.70
2022-08-17T17:43:20.442Z,12.50
2022-08-17T17:45:58.845Z,14.60
2022-08-17T17:48:50.801Z,15.30
2022-08-17T17:51:58.146Z,13.10
2022-08-17T17:54:33.992Z,11.60
2022-08-17T17:57:16.240Z,14.40
2022-08-17T17:59:59.024Z,17.10
2022-08-17T18:02:51.986Z,12.80
2022-08-17T18:05:44.615Z,13.30
2022-08-17T18:08:32.369Z,12.70
2022-08-17T18:11:15.126Z,13.50
2022-08-17T18:14:07.010Z,13.60
2022-08-17T18:16:42.993Z,13.10
2022-08-17T18:19:20.157Z,14.40
2022-08-17T18:21:54.811Z,15.00
2022-08-17T18:24:35.777Z,16.00
2022-08-17T18:27:23.593Z,13.30
2022-08-17T18:29:56.594Z,13.20
2022-08-17T18:32:34.674Z,12.80
2022-08-17T18:35:28.666Z,13.30
2022-08-17T18:38:20.596Z,13.60
2022-08-17T18:41:01.856Z,12.10
2022-08-17T18:43:44.251Z,14.30
2022-08-17T18:46:33.376Z,12.30
2022-08-17T18:49:07.822Z,13.20
2022-08-17T18:51:43.307Z,16.70
2022-08-17T18:54:24.238Z,17.90
2022-08-17T18:57:00.492Z,13.00
2022-08-17T18:59:35.961Z,14.20
2022-08-17T19:02:39.137Z,13.40
2022-08-17T19:05:27.821Z,12.30
2022-08-17T19:08:19.900Z,16.50
2022-08-17T19:10:55.298Z,13.00
2022-08-17T19:13:35.731Z,18.30
2022-08-17T19:16:15.726Z,12.50
2022-08-17T19:18:52.342Z,16.00
2022-08-17T19:21:28.660Z,16.90
2022-08-17T19:24:06.682Z,18.60
2022-08-17T19:26:50.914Z,19.30
2022-08-17T19:29:34.374Z,16.60
2022-08-17T19:32:08.150Z,16.80
2022-08-17T19:34:44.967Z,16.00
2022-08-17T19:37:30.996Z,16.90
2022-08-17T19:40:24.484Z,17.80
2022-08-17T19:43:16.192Z,17.50
2022-08-17T19:45:59.653Z,16.40
2022-08-17T19:48:45.831Z,16.00
2022-08-17T19:51:23.171Z,20.30
2022-08-17T19:54:07.379Z,18.10
2022-08-17T19:56:49.306Z,17.50
2022-08-17T19:59:36.144Z,15.30
2022-08-17T20:05:19.003Z,17.60
2022-08-17T20:07:56.511Z,16.60
2022-08-17T20:10:37.149Z,17.00
2022-08-17T20:13:15.635Z,19.50
2022-08-17T20:15:49.345Z,15.50
2022-08-17T20:18:25.908Z,16.90
2022-08-17T20:21:22.538Z,16.60
2022-08-17T20:24:15.695Z,14.90
2022-08-17T20:26:58.956Z,15.80
2022-08-17T20:30:22.566Z,16.30
2022-08-17T20:33:32.125Z,18.40
2022-08-17T20:36:35.641Z,18.60
2022-08-17T20:39:07.442Z,15.00
2022-08-17T20:42:07.473Z,15.60
2022-08-17T20:44:40.046Z,15.70
2022-08-17T20:47:29.625Z,16.00
2022-08-17T20:50:07.155Z,17.40
2022-08-17T20:52:57.065Z,15.70
2022-08-17T20:55:56.417Z,17.40
2022-08-17T20:58:50.443Z,17.50
2022-08-17T21:01:40.599Z,15.80
2022-08-17T21:04:47.737Z,14.20
2022-08-17T21:07:51.659Z,13.20
2022-08-17T21:10:44.358Z,14.00
2022-08-17T21:13:40.878Z,13.90
2022-08-17T21:16:29.839Z,12.90
2022-08-17T21:19:17.148Z,13.80
2022-08-17T21:22:03.466Z,12.30
2022-08-17T21:24:52.750Z,13.90
2022-08-17T21:27:37.016Z,14.60
2022-08-17T21:30:25.600Z,12.50
2022-08-17T21:33:25.380Z,12.80
2022-08-17T21:36:27.382Z,15.10
2022-08-17T21:39:09.113Z,16.00
2022-08-17T21:41:53.124Z,14.10
2022-08-17T21:44:32.992Z,14.30
2022-08-17T21:47:20.635Z,13.20
2022-08-17T21:49:52.177Z,13.50
2022-08-17T21:52:28.202Z,13.60
2022-08-17T21:55:02.571Z,14.00
2022-08-17T21:57:35.956Z,13.80
2022-08-17T22:00:16.148Z,13.00
2022-08-17T22:02:57.385Z,13.20
2022-08-17T22:05:37.427Z,12.50
2022-08-17T22:08:19.729Z,13.90
2022-08-17T22:10:52.371Z,15.10
2022-08-17T22:13:29.683Z,13.40
2022-08-17T22:16:29.287Z,12.20
2022-08-17T22:19:02.363Z,13.80
2022-08-17T22:21:33.787Z,16.20
2022-08-17T22:24:15.583Z,14.10
2022-08-17T22:27:02.729Z,13.90
2022-08-17T22:30:02.377Z,13.80
2022-08-17T22:32:46.695Z,18.20
2022-08-17T22:35:37.532Z,17.00
2022-08-17T22:38:29.730Z,15.50
2022-08-17T22:41:32.217Z,13.40
2022-08-17T22:44:18.046Z,14.30
2022-08-17T22:47:11.238Z,13.30
2022-08-17T22:49:53.153Z,15.20
2022-08-17T22:52:34.837Z,14.80
2022-08-17T22:55:32.702Z,14.50
2022-08-17T22:58:28.009Z,15.60
2022-08-17T23:01:19.641Z,14.70
2022-08-17T23:03:58.558Z,15.40
2022-08-17T23:06:30.837Z,15.20
2022-08-17T23:09:04.165Z,15.50
2022-08-17T23:11:49.414Z,16.50
2022-08-17T23:14:23.463Z,14.50
2022-08-17T23:16:54.897Z,16.50
2022-08-17T23:19:27.551Z,14.60
2022-08-17T23:22:00.037Z,16.60
2022-08-17T23:24:36.056Z,16.60
2022-08-17T23:27:07.810Z,15.30
2022-08-17T23:29:42.323Z,16.60
2022-08-17T23:32:16.006Z,14.30
2022-08-17T23:34:51.229Z,16.00
2022-08-17T23:37:23.307Z,14.60
2022-08-17T23:39:54.839Z,14.50
2022-08-17T23:42:26.320Z,14.30
2022-08-17T23:44:57.833Z,16.20
2022-08-17T23:47:29.437Z,16.00
2022-08-17T23:50:02.855Z,14.00
2022-08-17T23:52:37.153Z,15.90
2022-08-17T23:55:10.303Z,14.30
2022-08-17T23:57:42.299Z,15.30
